sensor_id;sensor_type;location;lat;lon;timestamp;pressure;altitude;pressure_sealevel;temperature;humidity
54876;BME280;40764;48.472;8.166;2023-03-23T00:00:22;97686.69;;;10.20;98.68
54876;BME280;40764;48.472;8.166;2023-03-23T00:06:27;97684.44;;;10.36;98.19
54876;BME280;40764;48.472;8.166;2023-03-23T00:12:30;97676.25;;;10.36;97.84
54876;BME280;40764;48.472;8.166;2023-03-23T00:18:34;97671.88;;;10.48;98.59
54876;BME280;40764;48.472;8.166;2023-03-23T00:24:53;97666.13;;;10.36;99.32
54876;BME280;40764;48.472;8.166;2023-03-23T00:30:56;97670.09;;;10.30;100.00
54876;BME280;40764;48.472;8.166;2023-03-23T00:37:03;97662.91;;;10.34;99.73
54876;BME280;40764;48.472;8.166;2023-03-23T00:43:03;97659.28;;;10.25;100.00
54876;BME280;40764;48.472;8.166;2023-03-23T00:49:03;97651.28;;;10.29;100.00
54876;BME280;40764;48.472;8.166;2023-03-23T00:55:04;97650.72;;;10.40;100.00
54876;BME280;40764;48.472;8.166;2023-03-23T01:01:05;97657.78;;;10.55;100.00
54876;BME280;40764;48.472;8.166;2023-03-23T01:07:11;97648.91;;;10.49;100.00
54876;BME280;40764;48.472;8.166;2023-03-23T01:13:14;97631.78;;;10.21;100.00
54876;BME280;40764;48.472;8.166;2023-03-23T01:19:15;97631.72;;;10.35;100.00
54876;BME280;40764;48.472;8.166;2023-03-23T01:25:16;97614.31;;;10.45;100.00
54876;BME280;40764;48.472;8.166;2023-03-23T01:31:19;97606.63;;;10.47;100.00
54876;BME280;40764;48.472;8.166;2023-03-23T01:37:20;97608.47;;;10.60;100.00
54876;BME280;40764;48.472;8.166;2023-03-23T01:43:22;97590.84;;;10.44;100.00
54876;BME280;40764;48.472;8.166;2023-03-23T01:49:29;97582.72;;;10.52;100.00
54876;BME280;40764;48.472;8.166;2023-03-23T01:55:31;97586.69;;;10.46;100.00
54876;BME280;40764;48.472;8.166;2023-03-23T02:01:32;97588.41;;;10.42;100.00
54876;BME280;40764;48.472;8.166;2023-03-23T02:07:36;97579.00;;;10.35;100.00
54876;BME280;40764;48.472;8.166;2023-03-23T02:13:37;97567.72;;;10.28;100.00
54876;BME280;40764;48.472;8.166;2023-03-23T02:19:55;97561.41;;;10.41;100.00
54876;BME280;40764;48.472;8.166;2023-03-23T02:32:21;97533.56;;;10.39;100.00
54876;BME280;40764;48.472;8.166;2023-03-23T02:39:12;97529.78;;;10.48;100.00
54876;BME280;40764;48.472;8.166;2023-03-23T02:44:54;97534.69;;;10.60;100.00
54876;BME280;40764;48.472;8.166;2023-03-23T02:50:55;97525.81;;;10.54;99.45
54876;BME280;40764;48.472;8.166;2023-03-23T02:56:56;97518.72;;;10.53;100.00
54876;BME280;40764;48.472;8.166;2023-03-23T03:02:57;97509.41;;;10.54;100.00
54876;BME280;40764;48.472;8.166;2023-03-23T03:15:34;97514.44;;;10.61;99.12
54876;BME280;40764;48.472;8.166;2023-03-23T03:21:39;97509.53;;;10.72;99.33
54876;BME280;40764;48.472;8.166;2023-03-23T03:27:43;97499.34;;;10.64;99.22
54876;BME280;40764;48.472;8.166;2023-03-23T03:34:15;97494.28;;;10.79;98.23
54876;BME280;40764;48.472;8.166;2023-03-23T03:40:20;97499.44;;;10.81;97.98
54876;BME280;40764;48.472;8.166;2023-03-23T03:46:21;97500.56;;;10.80;97.16
54876;BME280;40764;48.472;8.166;2023-03-23T03:52:21;97491.09;;;10.86;96.93
54876;BME280;40764;48.472;8.166;2023-03-23T03:58:22;97495.63;;;10.91;96.06
54876;BME280;40764;48.472;8.166;2023-03-23T04:04:22;97489.66;;;10.89;96.37
54876;BME280;40764;48.472;8.166;2023-03-23T04:10:22;97491.31;;;10.98;95.77
54876;BME280;40764;48.472;8.166;2023-03-23T04:16:24;97485.72;;;11.03;95.55
54876;BME280;40764;48.472;8.166;2023-03-23T04:22:27;97475.28;;;11.05;94.95
54876;BME280;40764;48.472;8.166;2023-03-23T04:28:30;97483.50;;;11.05;94.72
54876;BME280;40764;48.472;8.166;2023-03-23T04:34:34;97497.50;;;11.12;94.51
54876;BME280;40764;48.472;8.166;2023-03-23T04:40:39;97496.06;;;11.15;94.08
54876;BME280;40764;48.472;8.166;2023-03-23T04:46:40;97494.47;;;11.23;93.48
54876;BME280;40764;48.472;8.166;2023-03-23T04:52:41;97500.59;;;11.20;93.43
54876;BME280;40764;48.472;8.166;2023-03-23T04:58:46;97490.78;;;11.27;92.24
54876;BME280;40764;48.472;8.166;2023-03-23T05:04:46;97500.16;;;11.35;91.51
54876;BME280;40764;48.472;8.166;2023-03-23T05:10:52;97497.78;;;11.42;90.29
54876;BME280;40764;48.472;8.166;2023-03-23T05:16:53;97498.06;;;11.32;90.83
54876;BME280;40764;48.472;8.166;2023-03-23T05:22:55;97497.75;;;11.33;91.48
54876;BME280;40764;48.472;8.166;2023-03-23T05:28:56;97487.13;;;11.32;92.19
54876;BME280;40764;48.472;8.166;2023-03-23T05:34:58;97496.78;;;11.38;92.94
54876;BME280;40764;48.472;8.166;2023-03-23T05:40:59;97494.06;;;11.38;93.13
54876;BME280;40764;48.472;8.166;2023-03-23T05:47:01;97510.47;;;11.29;94.29
54876;BME280;40764;48.472;8.166;2023-03-23T05:53:01;97521.72;;;11.28;94.33
54876;BME280;40764;48.472;8.166;2023-03-23T05:59:04;97528.56;;;11.16;96.27
54876;BME280;40764;48.472;8.166;2023-03-23T06:05:05;97549.75;;;11.42;96.17
54876;BME280;40764;48.472;8.166;2023-03-23T06:11:05;97580.47;;;11.30;97.41
54876;BME280;40764;48.472;8.166;2023-03-23T06:17:06;97557.38;;;11.14;98.38
54876;BME280;40764;48.472;8.166;2023-03-23T06:23:08;97557.47;;;11.00;100.00
54876;BME280;40764;48.472;8.166;2023-03-23T06:29:08;97570.88;;;11.10;100.00
54876;BME280;40764;48.472;8.166;2023-03-23T06:35:12;97574.91;;;11.13;100.00
54876;BME280;40764;48.472;8.166;2023-03-23T06:41:13;97574.94;;;11.22;100.00
54876;BME280;40764;48.472;8.166;2023-03-23T06:47:13;97580.97;;;11.32;100.00
54876;BME280;40764;48.472;8.166;2023-03-23T06:53:14;97586.06;;;11.25;100.00
54876;BME280;40764;48.472;8.166;2023-03-23T06:59:14;97598.00;;;11.29;100.00
54876;BME280;40764;48.472;8.166;2023-03-23T07:05:15;97619.81;;;11.52;100.00
54876;BME280;40764;48.472;8.166;2023-03-23T07:11:16;97627.09;;;11.56;100.00
54876;BME280;40764;48.472;8.166;2023-03-23T07:17:16;97631.25;;;11.54;100.00
54876;BME280;40764;48.472;8.166;2023-03-23T07:23:17;97616.94;;;11.88;100.00
54876;BME280;40764;48.472;8.166;2023-03-23T07:29:18;97620.22;;;12.07;100.00
54876;BME280;40764;48.472;8.166;2023-03-23T07:35:18;97634.75;;;12.25;100.00
54876;BME280;40764;48.472;8.166;2023-03-23T07:41:19;97638.16;;;12.22;100.00
54876;BME280;40764;48.472;8.166;2023-03-23T07:47:19;97650.72;;;12.23;100.00
54876;BME280;40764;48.472;8.166;2023-03-23T07:53:20;97659.59;;;12.20;100.00
54876;BME280;40764;48.472;8.166;2023-03-23T07:59:22;97654.25;;;12.15;100.00
54876;BME280;40764;48.472;8.166;2023-03-23T08:05:24;97659.91;;;12.18;100.00
54876;BME280;40764;48.472;8.166;2023-03-23T08:11:26;97660.88;;;12.22;100.00
54876;BME280;40764;48.472;8.166;2023-03-23T08:17:26;97661.38;;;12.33;100.00
54876;BME280;40764;48.472;8.166;2023-03-23T08:23:27;97665.31;;;12.75;100.00
54876;BME280;40764;48.472;8.166;2023-03-23T08:29:27;97682.38;;;13.15;100.00
54876;BME280;40764;48.472;8.166;2023-03-23T08:35:28;97684.03;;;13.33;100.00
54876;BME280;40764;48.472;8.166;2023-03-23T08:41:29;97685.13;;;13.15;100.00
54876;BME280;40764;48.472;8.166;2023-03-23T08:47:29;97682.34;;;13.50;100.00
54876;BME280;40764;48.472;8.166;2023-03-23T08:53:30;97705.94;;;13.59;100.00
54876;BME280;40764;48.472;8.166;2023-03-23T08:59:31;97726.56;;;13.74;100.00
54876;BME280;40764;48.472;8.166;2023-03-23T09:05:31;97741.06;;;13.92;100.00
54876;BME280;40764;48.472;8.166;2023-03-23T09:11:33;97721.72;;;13.71;100.00
54876;BME280;40764;48.472;8.166;2023-03-23T09:17:52;97718.19;;;13.71;100.00
54876;BME280;40764;48.472;8.166;2023-03-23T09:23:55;97715.88;;;13.90;100.00
54876;BME280;40764;48.472;8.166;2023-03-23T09:29:58;97705.72;;;14.20;100.00
54876;BME280;40764;48.472;8.166;2023-03-23T09:35:59;97708.44;;;14.58;99.36
54876;BME280;40764;48.472;8.166;2023-03-23T09:42:14;97718.78;;;14.61;87.43
54876;BME280;40764;48.472;8.166;2023-03-23T09:48:38;97699.13;;;14.50;84.86
54876;BME280;40764;48.472;8.166;2023-03-23T09:54:47;97708.50;;;14.49;82.67
54876;BME280;40764;48.472;8.166;2023-03-23T10:01:02;97725.47;;;14.51;79.84
54876;BME280;40764;48.472;8.166;2023-03-23T10:07:13;97732.72;;;14.56;77.00
54876;BME280;40764;48.472;8.166;2023-03-23T10:19:34;97725.06;;;14.91;76.34
54876;BME280;40764;48.472;8.166;2023-03-23T10:25:42;97744.19;;;15.08;73.43
54876;BME280;40764;48.472;8.166;2023-03-23T10:31:54;97732.50;;;15.11;73.80
54876;BME280;40764;48.472;8.166;2023-03-23T10:38:01;97730.84;;;15.52;74.28
54876;BME280;40764;48.472;8.166;2023-03-23T10:44:18;97730.47;;;15.62;72.29
54876;BME280;40764;48.472;8.166;2023-03-23T10:50:39;97718.63;;;16.07;70.48
54876;BME280;40764;48.472;8.166;2023-03-23T10:56:42;97710.25;;;16.28;67.90
54876;BME280;40764;48.472;8.166;2023-03-23T11:09:02;97706.22;;;17.26;66.52
54876;BME280;40764;48.472;8.166;2023-03-23T11:15:38;97703.19;;;17.31;65.75
54876;BME280;40764;48.472;8.166;2023-03-23T11:21:40;97701.94;;;17.29;65.47
54876;BME280;40764;48.472;8.166;2023-03-23T11:27:53;97693.03;;;16.80;67.09
54876;BME280;40764;48.472;8.166;2023-03-23T11:34:02;97693.03;;;16.80;64.75
54876;BME280;40764;48.472;8.166;2023-03-23T11:46:25;97706.91;;;16.59;67.98
54876;BME280;40764;48.472;8.166;2023-03-23T11:59:53;97710.50;;;16.35;66.95
54876;BME280;40764;48.472;8.166;2023-03-23T12:06:09;97705.91;;;16.27;65.84
54876;BME280;40764;48.472;8.166;2023-03-23T12:12:25;97700.13;;;16.44;65.60
54876;BME280;40764;48.472;8.166;2023-03-23T12:31:42;97668.56;;;16.29;65.87
54876;BME280;40764;48.472;8.166;2023-03-23T12:38:35;97665.19;;;16.72;65.67
54876;BME280;40764;48.472;8.166;2023-03-23T12:51:21;97664.41;;;17.00;65.20
54876;BME280;40764;48.472;8.166;2023-03-23T12:57:39;97667.63;;;17.02;64.00
54876;BME280;40764;48.472;8.166;2023-03-23T13:03:49;97644.34;;;17.59;61.84
54876;BME280;40764;48.472;8.166;2023-03-23T13:10:07;97635.88;;;17.52;60.71
54876;BME280;40764;48.472;8.166;2023-03-23T13:16:21;97632.31;;;17.95;60.13
54876;BME280;40764;48.472;8.166;2023-03-23T13:28:30;97606.91;;;18.40;57.63
54876;BME280;40764;48.472;8.166;2023-03-23T13:34:35;97606.75;;;18.68;59.08
54876;BME280;40764;48.472;8.166;2023-03-23T13:40:42;97597.06;;;18.43;58.86
54876;BME280;40764;48.472;8.166;2023-03-23T13:46:54;97591.00;;;18.02;56.75
54876;BME280;40764;48.472;8.166;2023-03-23T13:52:59;97594.22;;;17.88;58.13
54876;BME280;40764;48.472;8.166;2023-03-23T14:11:55;97557.19;;;17.61;57.05
54876;BME280;40764;48.472;8.166;2023-03-23T14:18:01;97560.28;;;17.60;58.20
54876;BME280;40764;48.472;8.166;2023-03-23T14:24:10;97546.13;;;17.61;57.50
54876;BME280;40764;48.472;8.166;2023-03-23T14:30:22;97543.81;;;17.63;56.15
54876;BME280;40764;48.472;8.166;2023-03-23T14:36:29;97552.09;;;17.63;57.20
54876;BME280;40764;48.472;8.166;2023-03-23T14:42:33;97547.13;;;17.53;55.31
54876;BME280;40764;48.472;8.166;2023-03-23T14:48:35;97538.84;;;17.38;53.95
54876;BME280;40764;48.472;8.166;2023-03-23T14:54:39;97556.22;;;17.54;53.26
54876;BME280;40764;48.472;8.166;2023-03-23T15:01:34;97559.78;;;17.54;54.10
54876;BME280;40764;48.472;8.166;2023-03-23T15:07:53;97567.00;;;17.43;53.23
54876;BME280;40764;48.472;8.166;2023-03-23T15:14:45;97567.97;;;17.35;52.94
54876;BME280;40764;48.472;8.166;2023-03-23T15:20:53;97580.50;;;17.32;52.62
54876;BME280;40764;48.472;8.166;2023-03-23T15:27:13;97570.06;;;17.26;51.90
54876;BME280;40764;48.472;8.166;2023-03-23T15:33:14;97556.41;;;17.01;53.49
54876;BME280;40764;48.472;8.166;2023-03-23T15:39:18;97557.88;;;16.83;53.32
54876;BME280;40764;48.472;8.166;2023-03-23T15:45:27;97561.03;;;16.69;54.74
54876;BME280;40764;48.472;8.166;2023-03-23T15:51:29;97564.69;;;16.73;54.29
54876;BME280;40764;48.472;8.166;2023-03-23T15:57:30;97550.69;;;16.66;54.75
54876;BME280;40764;48.472;8.166;2023-03-23T16:03:38;97555.88;;;16.56;56.11
54876;BME280;40764;48.472;8.166;2023-03-23T16:09:39;97556.47;;;16.49;56.64
54876;BME280;40764;48.472;8.166;2023-03-23T16:15:41;97545.47;;;16.37;56.34
54876;BME280;40764;48.472;8.166;2023-03-23T16:21:52;97555.03;;;16.15;57.41
54876;BME280;40764;48.472;8.166;2023-03-23T16:27:52;97559.22;;;15.97;57.62
54876;BME280;40764;48.472;8.166;2023-03-23T16:33:54;97558.53;;;16.00;57.31
54876;BME280;40764;48.472;8.166;2023-03-23T16:39:54;97561.41;;;15.91;57.90
54876;BME280;40764;48.472;8.166;2023-03-23T16:45:55;97538.31;;;15.96;56.98
54876;BME280;40764;48.472;8.166;2023-03-23T16:51:56;97533.72;;;15.88;57.60
54876;BME280;40764;48.472;8.166;2023-03-23T16:57:57;97550.59;;;15.86;56.74
54876;BME280;40764;48.472;8.166;2023-03-23T17:03:58;97543.13;;;15.87;56.66
54876;BME280;40764;48.472;8.166;2023-03-23T17:09:58;97544.75;;;15.75;57.49
54876;BME280;40764;48.472;8.166;2023-03-23T17:15:59;97540.38;;;15.74;57.58
54876;BME280;40764;48.472;8.166;2023-03-23T17:22:00;97537.66;;;15.62;57.17
54876;BME280;40764;48.472;8.166;2023-03-23T17:28:00;97550.03;;;15.68;57.22
54876;BME280;40764;48.472;8.166;2023-03-23T17:34:03;97538.38;;;15.50;58.09
54876;BME280;40764;48.472;8.166;2023-03-23T17:40:05;97546.09;;;15.45;58.26
54876;BME280;40764;48.472;8.166;2023-03-23T17:46:09;97553.41;;;15.41;58.74
54876;BME280;40764;48.472;8.166;2023-03-23T17:52:09;97546.38;;;15.31;59.35
54876;BME280;40764;48.472;8.166;2023-03-23T17:58:10;97541.38;;;15.33;59.65
54876;BME280;40764;48.472;8.166;2023-03-23T18:04:11;97551.09;;;15.31;59.66
54876;BME280;40764;48.472;8.166;2023-03-23T18:10:11;97547.31;;;15.23;59.76
54876;BME280;40764;48.472;8.166;2023-03-23T18:16:15;97558.44;;;15.27;59.78
54876;BME280;40764;48.472;8.166;2023-03-23T18:22:25;97555.31;;;15.16;61.16
54876;BME280;40764;48.472;8.166;2023-03-23T18:28:41;97551.09;;;15.18;60.44
54876;BME280;40764;48.472;8.166;2023-03-23T18:34:45;97558.75;;;15.13;60.65
54876;BME280;40764;48.472;8.166;2023-03-23T18:40:51;97555.88;;;15.09;61.31
54876;BME280;40764;48.472;8.166;2023-03-23T18:46:55;97567.59;;;15.18;60.36
54876;BME280;40764;48.472;8.166;2023-03-23T18:53:01;97556.91;;;15.05;61.26
54876;BME280;40764;48.472;8.166;2023-03-23T18:59:04;97558.59;;;14.97;62.09
54876;BME280;40764;48.472;8.166;2023-03-23T19:05:32;97556.50;;;14.94;62.35
54876;BME280;40764;48.472;8.166;2023-03-23T19:11:55;97557.66;;;14.93;61.87
54876;BME280;40764;48.472;8.166;2023-03-23T19:17:55;97541.84;;;15.02;62.22
54876;BME280;40764;48.472;8.166;2023-03-23T19:23:57;97550.31;;;14.85;63.36
54876;BME280;40764;48.472;8.166;2023-03-23T19:29:57;97541.72;;;14.66;64.68
54876;BME280;40764;48.472;8.166;2023-03-23T19:42:38;97541.94;;;14.40;67.30
54876;BME280;40764;48.472;8.166;2023-03-23T19:48:39;97530.47;;;14.17;68.46
54876;BME280;40764;48.472;8.166;2023-03-23T19:54:39;97531.72;;;13.99;70.54
54876;BME280;40764;48.472;8.166;2023-03-23T20:00:40;97527.72;;;13.96;71.31
54876;BME280;40764;48.472;8.166;2023-03-23T20:06:40;97524.81;;;13.92;71.50
54876;BME280;40764;48.472;8.166;2023-03-23T20:12:41;97523.00;;;13.97;71.45
54876;BME280;40764;48.472;8.166;2023-03-23T20:18:41;97514.28;;;13.74;73.43
54876;BME280;40764;48.472;8.166;2023-03-23T20:24:42;97510.78;;;13.64;74.35
54876;BME280;40764;48.472;8.166;2023-03-23T20:30:46;97502.44;;;13.52;75.15
54876;BME280;40764;48.472;8.166;2023-03-23T20:36:46;97504.69;;;13.50;75.44
54876;BME280;40764;48.472;8.166;2023-03-23T20:42:49;97496.72;;;13.37;76.52
54876;BME280;40764;48.472;8.166;2023-03-23T20:48:51;97495.13;;;13.27;78.13
54876;BME280;40764;48.472;8.166;2023-03-23T20:54:53;97492.09;;;13.20;79.13
54876;BME280;40764;48.472;8.166;2023-03-23T21:00:55;97473.84;;;13.15;80.15
54876;BME280;40764;48.472;8.166;2023-03-23T21:06:56;97471.59;;;13.17;78.64
54876;BME280;40764;48.472;8.166;2023-03-23T21:12:58;97452.53;;;13.12;79.38
54876;BME280;40764;48.472;8.166;2023-03-23T21:18:59;97446.44;;;13.07;79.62
54876;BME280;40764;48.472;8.166;2023-03-23T21:25:00;97457.28;;;13.03;79.63
54876;BME280;40764;48.472;8.166;2023-03-23T21:31:03;97437.13;;;12.90;80.56
54876;BME280;40764;48.472;8.166;2023-03-23T21:37:03;97421.97;;;12.93;80.78
54876;BME280;40764;48.472;8.166;2023-03-23T21:43:04;97411.22;;;12.79;81.79
54876;BME280;40764;48.472;8.166;2023-03-23T21:49:05;97409.75;;;12.82;81.88
54876;BME280;40764;48.472;8.166;2023-03-23T21:55:10;97407.50;;;12.84;81.71
54876;BME280;40764;48.472;8.166;2023-03-23T22:01:11;97406.22;;;12.81;81.79
54876;BME280;40764;48.472;8.166;2023-03-23T22:07:12;97398.63;;;12.78;82.58
54876;BME280;40764;48.472;8.166;2023-03-23T22:13:13;97395.72;;;12.83;82.55
54876;BME280;40764;48.472;8.166;2023-03-23T22:19:18;97395.75;;;12.75;82.66
54876;BME280;40764;48.472;8.166;2023-03-23T22:25:18;97394.31;;;12.68;83.82
54876;BME280;40764;48.472;8.166;2023-03-23T22:31:22;97393.66;;;12.71;83.95
54876;BME280;40764;48.472;8.166;2023-03-23T22:37:22;97398.38;;;12.62;84.14
54876;BME280;40764;48.472;8.166;2023-03-23T22:43:23;97415.19;;;12.52;85.51
54876;BME280;40764;48.472;8.166;2023-03-23T22:49:24;97417.13;;;12.52;86.12
54876;BME280;40764;48.472;8.166;2023-03-23T22:55:25;97413.63;;;12.25;89.89
54876;BME280;40764;48.472;8.166;2023-03-23T23:01:26;97419.91;;;12.26;90.73
54876;BME280;40764;48.472;8.166;2023-03-23T23:07:27;97380.44;;;12.09;92.24
54876;BME280;40764;48.472;8.166;2023-03-23T23:13:28;97366.59;;;12.15;93.69
54876;BME280;40764;48.472;8.166;2023-03-23T23:19:29;97382.69;;;12.25;93.84
54876;BME280;40764;48.472;8.166;2023-03-23T23:25:30;97381.56;;;12.08;94.92
54876;BME280;40764;48.472;8.166;2023-03-23T23:31:30;97381.25;;;12.10;95.78
54876;BME280;40764;48.472;8.166;2023-03-23T23:37:32;97374.34;;;11.78;97.59
54876;BME280;40764;48.472;8.166;2023-03-23T23:43:33;97366.13;;;11.78;99.52
54876;BME280;40764;48.472;8.166;2023-03-23T23:49:33;97360.00;;;11.81;100.00
54876;BME280;40764;48.472;8.166;2023-03-23T23:55:34;97339.38;;;11.75;100.00
